DW9770 Montrose AL US current weather conditions

sailwx.info

Wind from 020 at 0 knots gusting 3

Air temperature 15.6° C
Dewpoint 12.1° C

Last reported at 2019-Oct-17 07:01 UTC.
Time now 2019-Oct-17 08:00 UTC

Location: N 30°33' W 087°54'.
View on Google Maps.

See reports from other nearby stations

  
Tides and Currents Weather Stations Pressure Air Temp Water Temp Dewpoint Dewpoint Depression Visibility Wind Speed Wind Dir Waves Ship Positions
date/time (UTC)wind fromknots sea level pressurealtimeterstation pressurevisibilityair tempwater tempwave heightnotes
2019-Oct-17 07:01 020 0 gusting 3 15.6
2019-Oct-17 06:46 025 0 gusting 4 15.6
2019-Oct-17 06:31 024 4 gusting 9 16.1
2019-Oct-17 06:16 031 4 gusting 8 16.1
2019-Oct-17 06:01 024 0 gusting 7 16.1
2019-Oct-17 05:47 011 5 gusting 13 16.7
2019-Oct-17 05:31 023 4 gusting 13 16.7
2019-Oct-17 05:16 023 6 gusting 9 16.7
2019-Oct-17 05:00 030 5 gusting 9 16.7
2019-Oct-17 04:46 017 4 gusting 8 17.2
2019-Oct-17 04:30 020 2 gusting 7 17.2
2019-Oct-17 04:16 024 0 gusting 7 17.8
2019-Oct-17 04:01 017 3 gusting 7 17.8
2019-Oct-17 03:45 026 2 gusting 8 18.3
2019-Oct-17 03:31 026 6 gusting 12 18.9
2019-Oct-17 03:15 019 7 gusting 14 19.4
2019-Oct-17 03:00 351 8 gusting 13 19.4
2019-Oct-17 02:45 024 4 gusting 8 20.0
2019-Oct-17 02:30 360 7 gusting 12 20.6
2019-Oct-17 02:15 012 8 gusting 13 20.6
2019-Oct-17 02:00 355 9 gusting 13 21.1
2019-Oct-17 01:47 355 9 gusting 13 21.7
2019-Oct-17 01:31 340 8 gusting 13 21.7
2019-Oct-17 01:17 355 12 gusting 17 22.2
2019-Oct-17 01:02 341 11 gusting 14 22.2
2019-Oct-17 00:45 348 9 gusting 16 22.8
2019-Oct-17 00:31 339 12 gusting 16 22.8
2019-Oct-17 00:15 355 7 gusting 11 23.3
2019-Oct-16 23:45 012 8 gusting 12 22.8
2019-Oct-16 23:31 011 3 gusting 6 23.3
2019-Oct-16 23:16 327 1 gusting 5 23.3
2019-Oct-16 23:01 009 5 gusting 10 23.9
2019-Oct-16 22:46 029 4 gusting 13 24.4
2019-Oct-16 22:31 017 7 gusting 13 25.0
2019-Oct-16 22:16 034 7 gusting 13 25.0
2019-Oct-16 22:00 005 6 gusting 14 25.6
2019-Oct-16 21:46 046 6 gusting 9 25.0
2019-Oct-16 21:31 360 2 gusting 10 25.6
2019-Oct-16 21:15 329 7 gusting 11 25.6
2019-Oct-16 21:01 009 8 gusting 12 25.0
2019-Oct-16 20:45 024 5 gusting 10 25.0
2019-Oct-16 20:30 341 5 gusting 10 25.0
2019-Oct-16 20:15 355 5 gusting 10 25.0
2019-Oct-16 20:01 331 6 gusting 13 25.0
2019-Oct-16 19:45 355 7 gusting 13 24.4
2019-Oct-16 19:30 005 12 gusting 15 24.4
2019-Oct-16 19:15 355 11 gusting 17 24.4
2019-Oct-16 19:00 329 12 gusting 16 24.4
2019-Oct-16 18:45 333 9 gusting 12 24.4
2019-Oct-16 18:30 333 9 gusting 14 24.4
2019-Oct-16 18:15 318 4 gusting 6 23.9
2019-Oct-16 18:00 281 6 gusting 7 23.3
2019-Oct-16 17:45 270 5 gusting 11 23.3
2019-Oct-16 17:30 266 6 gusting 11 23.3
2019-Oct-16 17:15 271 7 gusting 11 23.9
2019-Oct-16 17:00 279 7 gusting 10 23.9
2019-Oct-16 16:45 286 7 gusting 11 23.9
2019-Oct-16 16:30 274 7 gusting 12 23.9
2019-Oct-16 16:16 254 6 gusting 10 23.9
2019-Oct-16 16:00 258 8 gusting 12 23.9
2019-Oct-16 15:45 277 8 gusting 10 23.9
2019-Oct-16 15:30 267 3 gusting 8 23.3
2019-Oct-16 15:15 314 5 gusting 9 23.3
2019-Oct-16 15:00 265 8 gusting 12 23.9
2019-Oct-16 14:45 286 9 gusting 13 23.9
2019-Oct-16 14:30 294 8 gusting 13 23.9
2019-Oct-16 14:15 306 10 gusting 12 23.9
2019-Oct-16 14:00 322 9 gusting 13 23.3
2019-Oct-16 13:45 355 7 gusting 11 23.9
2019-Oct-16 13:30 338 9 gusting 14 23.9
2019-Oct-16 13:15 329 12 gusting 15 23.9
2019-Oct-16 13:02 322 12 gusting 15 23.9
2019-Oct-16 12:47 323 8 gusting 12 23.9
2019-Oct-16 12:33 316 7 gusting 10 24.4
2019-Oct-16 12:17 315 7 gusting 10 23.9
2019-Oct-16 11:47 323 8 gusting 12 23.9
2019-Oct-16 11:31 331 8 gusting 10 23.9
2019-Oct-16 11:16 287 6 gusting 7 23.9
2019-Oct-16 11:01 316 6 gusting 8 24.4
2019-Oct-16 10:46 257 5 gusting 7 24.4
2019-Oct-16 10:31 257 6 gusting 10 24.4
2019-Oct-16 10:17 251 6 gusting 10 24.4
2019-Oct-16 10:02 258 6 gusting 11 24.4
2019-Oct-16 09:46 209 11 gusting 14 24.4
2019-Oct-16 09:32 234 7 gusting 11 24.4
2019-Oct-16 09:16 232 7 gusting 10 23.9
2019-Oct-16 09:01 236 7 gusting 9 23.9
2019-Oct-16 08:47 240 7 gusting 11 23.9
2019-Oct-16 08:31 248 7 gusting 10 23.9
2019-Oct-16 08:17 244 6 gusting 9 23.9
2019-Oct-16 08:01 246 7 gusting 10 23.9
2019-Oct-16 07:46 232 6 gusting 8 24.4
2019-Oct-16 07:31 234 6 gusting 8 24.4
2019-Oct-16 07:15 236 4 gusting 7 23.9
2019-Oct-16 07:01 217 4 gusting 6 23.3
2019-Oct-16 06:45 152 0 gusting 3 22.8
2019-Oct-16 06:31 140 0 gusting 3 22.8
2019-Oct-16 06:15 155 5 gusting 7 23.3
2019-Oct-16 06:00 202 6 gusting 8 23.3
2019-Oct-16 05:45 235 6 gusting 8 23.3
2019-Oct-16 05:31 198 5 gusting 8 23.3
2019-Oct-16 05:15 202 8 gusting 11 23.3
2019-Oct-16 05:00 211 10 gusting 13 23.3
2019-Oct-16 04:45 223 7 gusting 11 23.9
2019-Oct-16 04:30 216 6 gusting 7 23.3
2019-Oct-16 04:15 223 5 gusting 7 23.3
2019-Oct-16 04:01 195 1 gusting 3 23.3
2019-Oct-16 03:45 148 1 gusting 7 23.3
2019-Oct-16 03:30 209 3 gusting 6 23.3
2019-Oct-16 03:15 238 3 gusting 6 23.3
2019-Oct-16 03:00 229 6 gusting 8 23.3
2019-Oct-16 02:45 267 3 gusting 8 22.8
2019-Oct-16 02:30 273 8 gusting 11 23.3
2019-Oct-16 02:15 117 1 gusting 8 23.3
2019-Oct-16 02:00 113 2 gusting 10 23.9
2019-Oct-16 01:45 223 3 gusting 17 25.0
2019-Oct-16 01:30 360 11 gusting 17 25.6
2019-Oct-16 01:15 169 3 gusting 6 26.7
2019-Oct-16 01:00 169 3 gusting 5 26.7
2019-Oct-16 00:45 161 2 gusting 5 26.7
2019-Oct-16 00:30 155 0 gusting 2 26.7
2019-Oct-16 00:15 155 0 gusting 2 26.7
2019-Oct-16 00:00 155 1 gusting 4 26.7
2019-Oct-15 23:45 178 1 gusting 4 26.7
2019-Oct-15 23:30 173 2 gusting 5 27.2
2019-Oct-15 23:15 183 4 gusting 6 27.2
2019-Oct-15 23:00 184 4 gusting 6 27.2
2019-Oct-15 22:45 176 5 gusting 7 27.2
2019-Oct-15 22:30 177 6 gusting 8 27.8
2019-Oct-15 22:15 176 6 gusting 9 27.8
2019-Oct-15 22:00 187 6 gusting 9 27.8
2019-Oct-15 21:47 186 6 gusting 8 27.8
2019-Oct-15 21:33 186 7 gusting 10 27.8
2019-Oct-15 21:16 191 8 gusting 12 27.8
2019-Oct-15 21:02 188 8 gusting 12 27.8
2019-Oct-15 20:46 188 8 gusting 10 27.8
2019-Oct-15 20:32 188 9 gusting 11 27.8
2019-Oct-15 20:16 173 9 gusting 12 27.8
2019-Oct-15 20:02 190 6 gusting 10 27.8
2019-Oct-15 19:46 184 8 gusting 11 27.2
2019-Oct-15 19:32 190 8 gusting 11 27.2
2019-Oct-15 19:16 192 8 gusting 11 27.8
2019-Oct-15 19:01 197 7 gusting 11 27.8
2019-Oct-15 18:46 183 8 gusting 12 27.8
2019-Oct-15 18:31 191 7 gusting 9 27.8
2019-Oct-15 18:16 196 7 gusting 11 27.8
2019-Oct-15 18:00 203 6 gusting 10 27.2
2019-Oct-15 17:46 221 5 gusting 10 27.2
2019-Oct-15 17:31 209 8 gusting 12 27.2
2019-Oct-15 17:16 207 3 gusting 6 26.1
2019-Oct-15 17:01 275 0 gusting 1 26.1
2019-Oct-15 16:45 315 1 gusting 3 25.6
2019-Oct-15 16:30 315 1 gusting 2 25.6
2019-Oct-15 16:15 313 3 gusting 5 25.6
2019-Oct-15 16:01 319 3 gusting 5 25.6
2019-Oct-15 15:45 327 4 gusting 7 25.6
2019-Oct-15 15:30 161 26.7
2019-Oct-15 15:15 131 26.1
2019-Oct-15 15:00 113 0 gusting 3 25.6
2019-Oct-15 14:45 101 24.4
2019-Oct-15 14:30 084 0 gusting 6 24.4
2019-Oct-15 14:16 087 1 gusting 4 23.9
2019-Oct-15 14:01 068 0 gusting 4 23.3
2019-Oct-15 13:46 091 0 gusting 5 23.3
2019-Oct-15 13:32 105 1 gusting 3 22.8
2019-Oct-15 13:17 110 1 gusting 5 22.8
2019-Oct-15 13:01 038 0 gusting 6 22.8
2019-Oct-15 12:46 088 0 gusting 2 22.8
2019-Oct-15 12:31 116 1 gusting 6 22.8
2019-Oct-15 12:16 105 1 gusting 6 22.2
2019-Oct-15 12:01 130 22.2
2019-Oct-15 11:47 115 22.2
2019-Oct-15 11:31 119 0 gusting 3 22.2
2019-Oct-15 11:16 103 22.2
2019-Oct-15 11:01 338 0 gusting 5 22.2
2019-Oct-15 10:48 084 22.2
2019-Oct-15 10:31 113 0 gusting 3 22.2
2019-Oct-15 10:16 091 0 gusting 3 22.2
2019-Oct-15 10:02 098 0 gusting 2 22.2
2019-Oct-15 09:46 033 0 gusting 2 22.2
2019-Oct-15 09:31 091 0 gusting 5 22.2
2019-Oct-15 09:16 087 0 gusting 2 22.2
2019-Oct-15 09:02 091 0 gusting 2 22.2
2019-Oct-15 08:46 099 0 gusting 2 22.8
2019-Oct-15 08:31 091 0 gusting 3 22.8
2019-Oct-15 08:16 101 0 gusting 2 22.8